Time;durP1;ratioP1;P1;durP2;ratioP2;P2;SDS_P1;SDS_P2;PMS_P1;PMS_P2;Temp;Humidity;BMP_temperature;BMP_pressure;BME280_temperature;BME280_humidity;BME280_pressure;Samples;Min_cycle;Max_cycle;Signal;HPM_P1;HPM_P2
2023/06/09 00:00:23;;;;;;;8.35;2.75;;;;;;;17.92;100.00;101340.59;6196909;28;20042;-80
2023/06/09 00:03:25;;;;;;;7.30;2.97;;;;;;;17.85;100.00;101336.72;6195605;28;20043;-80
2023/06/09 00:06:27;;;;;;;8.90;2.95;;;;;;;17.83;100.00;101337.78;6180908;28;20055;-80
2023/06/09 00:09:28;;;;;;;5.55;2.60;;;;;;;17.82;100.00;101352.88;6190255;28;20051;-80
2023/06/09 00:12:31;;;;;;;8.90;2.70;;;;;;;17.76;100.00;101345.38;6202822;28;20184;-80
2023/06/09 00:15:32;;;;;;;9.15;2.80;;;;;;;17.61;100.00;101349.97;6196661;28;20054;-80
2023/06/09 00:18:34;;;;;;;8.68;3.08;;;;;;;17.59;100.00;101351.06;6180797;28;20074;-80
2023/06/09 00:21:37;;;;;;;3.15;2.15;;;;;;;17.62;100.00;101343.72;6184093;28;20141;-80
2023/06/09 00:24:38;;;;;;;4.20;2.28;;;;;;;17.58;100.00;101352.88;6193863;28;20117;-80
2023/06/09 00:27:43;;;;;;;6.43;2.55;;;;;;;17.57;100.00;101348.47;6191580;28;20054;-81
2023/06/09 00:30:45;;;;;;;9.15;2.55;;;;;;;17.60;100.00;101350.94;6183867;28;20047;-80
2023/06/09 00:33:46;;;;;;;12.57;3.30;;;;;;;17.55;100.00;101347.75;6191155;28;20050;-80
2023/06/09 00:36:47;;;;;;;4.80;2.20;;;;;;;17.58;100.00;101350.19;6184001;28;20051;-80
2023/06/09 00:39:50;;;;;;;4.47;2.42;;;;;;;17.53;100.00;101349.66;6184273;28;20060;-80
2023/06/09 00:42:52;;;;;;;5.50;2.25;;;;;;;17.53;100.00;101351.47;6199218;28;20054;-80
2023/06/09 00:45:54;;;;;;;7.43;2.42;;;;;;;17.53;100.00;101348.81;6188084;28;20447;-80
2023/06/09 00:48:56;;;;;;;4.43;2.20;;;;;;;17.45;100.00;101354.72;6187954;28;20047;-80
2023/06/09 00:51:58;;;;;;;5.60;2.47;;;;;;;17.39;100.00;101355.13;6200429;28;20046;-80
2023/06/09 00:55:00;;;;;;;10.02;2.67;;;;;;;17.38;100.00;101348.97;6195831;28;20058;-80
2023/06/09 00:58:03;;;;;;;3.08;2.40;;;;;;;17.35;100.00;101345.69;6195610;28;20077;-80
2023/06/09 01:01:05;;;;;;;6.07;2.45;;;;;;;17.32;100.00;101348.59;6187052;28;20057;-81
2023/06/09 01:04:08;;;;;;;7.90;2.83;;;;;;;17.37;100.00;101351.75;6195985;28;20046;-80
2023/06/09 01:07:20;;;;;;;10.05;2.47;;;;;;;17.43;100.00;101351.31;6195566;28;20058;-80
2023/06/09 01:10:26;;;;;;;8.65;2.45;;;;;;;17.36;100.00;101344.75;6202232;28;20053;-80
2023/06/09 01:13:40;;;;;;;9.48;3.60;;;;;;;17.36;100.00;101353.56;6185673;28;20069;-80
2023/06/09 01:16:48;;;;;;;5.47;2.33;;;;;;;17.34;100.00;101349.31;6198988;28;20046;-80
2023/06/09 01:19:53;;;;;;;5.78;2.58;;;;;;;17.33;100.00;101348.47;6190086;28;20193;-80
2023/06/09 01:23:06;;;;;;;4.85;2.70;;;;;;;17.34;100.00;101352.81;6180415;28;20046;-80
2023/06/09 01:26:10;;;;;;;2.72;2.08;;;;;;;17.30;100.00;101347.81;6195362;28;20051;-80
2023/06/09 01:29:15;;;;;;;3.17;1.73;;;;;;;17.34;100.00;101344.84;6195367;28;20051;-80
2023/06/09 01:32:18;;;;;;;6.38;2.42;;;;;;;17.39;100.00;101345.34;6194541;28;20427;-80
2023/06/09 01:35:19;;;;;;;5.55;2.58;;;;;;;17.38;100.00;101350.78;6194688;28;20050;-81
2023/06/09 01:38:23;;;;;;;5.25;2.60;;;;;;;17.35;100.00;101354.53;6189418;28;20054;-80
2023/06/09 01:41:26;;;;;;;8.38;3.25;;;;;;;17.30;100.00;101353.16;6192880;28;20054;-80
2023/06/09 01:44:27;;;;;;;6.40;2.80;;;;;;;17.32;100.00;101349.44;6186944;28;20085;-81
2023/06/09 01:47:29;;;;;;;7.32;2.55;;;;;;;17.35;100.00;101351.00;6188328;28;20054;-80
2023/06/09 01:50:38;;;;;;;5.20;2.05;;;;;;;17.35;100.00;101346.56;6194158;28;20137;-80
2023/06/09 01:53:44;;;;;;;8.95;2.55;;;;;;;17.34;100.00;101347.50;6184189;28;20043;-80
2023/06/09 01:56:50;;;;;;;6.70;2.85;;;;;;;17.33;100.00;101343.16;6186495;28;20075;-80
2023/06/09 01:59:55;;;;;;;6.30;2.63;;;;;;;17.30;100.00;101351.34;6183470;28;20060;-80
2023/06/09 02:03:01;;;;;;;4.88;2.30;;;;;;;17.24;100.00;101347.31;6186494;28;20172;-80
2023/06/09 02:06:04;;;;;;;5.43;2.45;;;;;;;17.25;100.00;101349.00;6187914;28;20073;-81
2023/06/09 02:09:05;;;;;;;7.00;3.22;;;;;;;17.27;100.00;101340.94;6185123;28;20058;-80
2023/06/09 02:12:09;;;;;;;8.15;2.67;;;;;;;17.28;100.00;101337.31;6194844;28;20059;-80
2023/06/09 02:15:11;;;;;;;6.93;3.10;;;;;;;17.22;100.00;101335.97;6185907;28;20098;-81
2023/06/09 02:18:12;;;;;;;11.88;3.33;;;;;;;17.19;100.00;101336.19;6178225;28;20058;-80
2023/06/09 02:21:14;;;;;;;9.30;2.90;;;;;;;17.14;100.00;101346.28;6193465;28;20050;-80
2023/06/09 02:24:16;;;;;;;5.55;2.72;;;;;;;17.17;100.00;101351.38;6200964;28;20057;-81
2023/06/09 02:27:19;;;;;;;6.75;2.20;;;;;;;17.15;100.00;101339.16;6196027;28;20077;-80
2023/06/09 02:30:20;;;;;;;8.27;2.85;;;;;;;17.14;100.00;101340.13;6193268;28;20141;-80
2023/06/09 02:33:24;;;;;;;9.45;2.97;;;;;;;17.17;100.00;101342.56;6192875;28;20054;-81
2023/06/09 02:36:26;;;;;;;6.10;2.70;;;;;;;17.15;100.00;101332.03;6195113;28;20128;-80
2023/06/09 02:39:28;;;;;;;7.78;2.20;;;;;;;17.16;100.00;101340.84;6183138;28;20073;-80
2023/06/09 02:42:30;;;;;;;5.82;2.22;;;;;;;17.17;100.00;101326.63;6187617;28;20053;-80
2023/06/09 02:45:32;;;;;;;3.60;2.33;;;;;;;17.16;100.00;101330.22;6196524;28;20054;-80
2023/06/09 02:48:33;;;;;;;5.97;2.10;;;;;;;17.15;100.00;101334.69;6187926;28;20108;-80
2023/06/09 02:51:36;;;;;;;5.32;2.50;;;;;;;17.14;100.00;101337.47;6190391;28;20455;-80
2023/06/09 02:54:37;;;;;;;5.75;2.85;;;;;;;17.07;100.00;101330.88;6197126;28;20047;-81
2023/06/09 02:57:40;;;;;;;9.60;3.22;;;;;;;17.04;100.00;101336.44;6188729;28;20050;-80
2023/06/09 03:00:44;;;;;;;4.40;2.15;;;;;;;17.05;100.00;101343.44;6195558;28;20155;-81
2023/06/09 03:03:46;;;;;;;7.28;2.95;;;;;;;17.02;100.00;101339.19;6177481;28;20043;-80
2023/06/09 03:06:49;;;;;;;5.88;2.42;;;;;;;17.04;100.00;101339.94;6177251;28;20050;-80
2023/06/09 03:09:51;;;;;;;6.25;2.60;;;;;;;17.08;100.00;101337.88;6197366;28;20057;-80
2023/06/09 03:12:54;;;;;;;5.05;3.13;;;;;;;17.05;100.00;101338.97;6201313;28;20053;-81
2023/06/09 03:15:55;;;;;;;5.30;2.45;;;;;;;17.01;100.00;101350.75;6195647;28;20051;-80
2023/06/09 03:18:56;;;;;;;5.28;2.47;;;;;;;17.00;100.00;101349.06;6177328;28;20050;-80
2023/06/09 03:21:58;;;;;;;9.85;3.03;;;;;;;17.01;100.00;101350.75;6185518;28;20058;-80
2023/06/09 03:25:01;;;;;;;6.00;2.72;;;;;;;16.99;100.00;101350.88;6177231;28;20051;-80
2023/06/09 03:28:04;;;;;;;5.88;2.70;;;;;;;16.99;100.00;101353.53;6193825;28;20395;-80
2023/06/09 03:31:05;;;;;;;6.68;2.92;;;;;;;16.93;100.00;101375.19;6199141;28;20050;-81
2023/06/09 03:34:06;;;;;;;2.95;1.95;;;;;;;16.91;100.00;101368.31;6205608;28;20431;-81
2023/06/09 03:37:09;;;;;;;9.32;2.85;;;;;;;16.94;100.00;101376.03;6192622;28;20055;-80
2023/06/09 03:40:12;;;;;;;4.38;2.58;;;;;;;16.91;100.00;101387.75;6204362;28;20065;-81
2023/06/09 03:43:14;;;;;;;4.85;2.50;;;;;;;16.94;100.00;101379.56;6182040;28;20055;-81
2023/06/09 03:46:16;;;;;;;6.30;2.53;;;;;;;16.85;100.00;101380.22;6183647;28;20046;-80
2023/06/09 03:49:18;;;;;;;5.63;2.88;;;;;;;16.80;100.00;101384.13;6172289;28;20054;-80
2023/06/09 03:52:21;;;;;;;8.20;3.03;;;;;;;16.78;100.00;101388.69;6175887;28;20175;-80
2023/06/09 03:55:24;;;;;;;4.32;2.10;;;;;;;16.77;100.00;101379.03;6165158;28;20043;-80
2023/06/09 03:58:27;;;;;;;5.32;2.80;;;;;;;16.74;100.00;101377.44;6188621;28;20209;-80
2023/06/09 04:01:30;;;;;;;5.32;2.20;;;;;;;16.70;100.00;101373.25;6196060;28;20054;-80
2023/06/09 04:04:31;;;;;;;7.90;2.88;;;;;;;16.67;100.00;101379.66;6196014;28;20054;-80
2023/06/09 04:07:33;;;;;;;6.07;2.95;;;;;;;16.66;100.00;101375.28;6191599;28;20047;-80
2023/06/09 04:10:35;;;;;;;5.90;2.50;;;;;;;16.68;100.00;101377.84;6190154;28;20161;-80
2023/06/09 04:13:38;;;;;;;4.90;2.60;;;;;;;16.66;100.00;101375.28;6185656;28;20069;-80
2023/06/09 04:16:39;;;;;;;6.20;2.67;;;;;;;16.70;100.00;101378.56;6192016;28;20439;-80
2023/06/09 04:19:41;;;;;;;5.03;2.05;;;;;;;16.66;100.00;101375.28;6195435;28;20201;-80
2023/06/09 04:22:49;;;;;;;2.28;1.77;;;;;;;16.70;100.00;101381.22;6189282;28;20105;-80
2023/06/09 04:25:53;;;;;;;6.18;2.80;;;;;;;16.67;100.00;101378.81;6184240;28;20046;-80
2023/06/09 04:28:56;;;;;;;6.03;2.30;;;;;;;16.69;100.00;101377.72;6184335;28;20464;-80
2023/06/09 04:31:58;;;;;;;7.00;2.25;;;;;;;16.69;100.00;101374.22;6184926;28;20455;-80
2023/06/09 04:35:00;;;;;;;7.63;2.42;;;;;;;16.72;100.00;101376.72;6184229;28;20042;-80
2023/06/09 04:38:03;;;;;;;3.67;1.88;;;;;;;16.73;100.00;101375.75;6185007;28;20054;-75
2023/06/09 04:41:04;;;;;;;7.65;2.45;;;;;;;16.69;100.00;101374.22;6183830;28;20060;-75
2023/06/09 04:44:07;;;;;;;6.05;2.90;;;;;;;16.64;100.00;101371.88;6185710;28;20047;-75
2023/06/09 04:47:10;;;;;;;8.57;2.38;;;;;;;16.63;100.00;101375.50;6189156;28;20344;-75
2023/06/09 04:50:12;;;;;;;7.93;2.92;;;;;;;16.67;100.00;101373.50;6192502;28;20046;-75
2023/06/09 04:53:15;;;;;;;6.00;3.08;;;;;;;16.71;100.00;101374.94;6190924;28;20062;-75
2023/06/09 04:56:16;;;;;;;4.28;2.13;;;;;;;16.75;100.00;101376.47;6188241;28;20368;-80
2023/06/09 04:59:20;;;;;;;5.97;1.90;;;;;;;16.80;100.00;101365.53;6189018;28;20057;-80
2023/06/09 05:02:22;;;;;;;6.00;2.88;;;;;;;16.82;100.00;101367.16;6190647;28;20050;-80
2023/06/09 05:05:23;;;;;;;5.35;2.13;;;;;;;16.86;100.00;101365.97;6179793;28;20462;-80
2023/06/09 05:08:25;;;;;;;5.25;2.85;;;;;;;16.82;100.00;101372.44;6196890;28;20054;-80
2023/06/09 05:11:26;;;;;;;4.93;2.78;;;;;;;16.80;100.00;101377.00;6195179;28;20050;-80
2023/06/09 05:14:29;;;;;;;6.63;2.55;;;;;;;16.78;100.00;101380.72;6195495;28;20046;-79
2023/06/09 05:17:31;;;;;;;6.15;2.83;;;;;;;16.82;100.00;101392.84;6193511;28;20059;-80
2023/06/09 05:20:33;;;;;;;4.97;2.47;;;;;;;16.81;100.00;101391.16;6197249;28;20053;-80
2023/06/09 05:23:34;;;;;;;7.72;2.60;;;;;;;16.81;100.00;101399.97;6193974;28;20043;-80
2023/06/09 05:26:35;;;;;;;14.63;3.08;;;;;;;16.80;100.00;101394.72;6194415;28;20069;-81
2023/06/09 05:29:38;;;;;;;7.72;3.28;;;;;;;16.79;100.00;101396.53;6186647;28;20539;-80
2023/06/09 05:32:40;;;;;;;12.10;2.92;;;;;;;16.71;100.00;101394.41;6191944;28;20042;-80
2023/06/09 05:35:41;;;;;;;4.80;2.55;;;;;;;16.74;100.00;101398.66;6189010;28;20045;-80
2023/06/09 05:38:43;;;;;;;8.15;3.15;;;;;;;16.76;100.00;101399.44;6182746;28;20057;-80
2023/06/09 05:41:44;;;;;;;4.65;2.75;;;;;;;16.79;100.00;101401.00;6190319;28;20494;-80
2023/06/09 05:44:47;;;;;;;5.43;2.92;;;;;;;16.84;100.00;101401.53;6178833;28;20359;-80
2023/06/09 05:47:49;;;;;;;5.22;2.65;;;;;;;16.85;100.00;101403.22;6186628;28;20451;-80
2023/06/09 05:50:51;;;;;;;5.22;2.95;;;;;;;16.88;100.00;101403.88;6198907;28;20061;-80
2023/06/09 05:53:53;;;;;;;7.13;3.15;;;;;;;16.94;100.00;101397.28;6198227;28;20046;-80
2023/06/09 05:56:55;;;;;;;11.70;3.10;;;;;;;16.92;100.00;101394.75;6188665;28;20047;-80
2023/06/09 05:59:58;;;;;;;8.00;2.95;;;;;;;16.98;100.00;101393.47;6185871;28;20062;-80
2023/06/09 06:03:01;;;;;;;5.40;2.90;;;;;;;17.00;100.00;101396.88;6186831;28;20193;-79
2023/06/09 06:06:03;;;;;;;4.85;3.33;;;;;;;17.00;100.00;101404.84;6188539;28;20042;-79
2023/06/09 06:09:04;;;;;;;6.15;2.72;;;;;;;17.05;100.00;101402.72;6195805;28;20065;-79
2023/06/09 06:12:06;;;;;;;8.30;3.80;;;;;;;17.10;100.00;101413.00;6192370;28;20061;-79
2023/06/09 06:15:10;;;;;;;7.07;3.33;;;;;;;17.12;100.00;101416.38;6179974;28;20094;-80
2023/06/09 06:18:11;;;;;;;5.53;2.80;;;;;;;17.14;100.00;101418.00;6193518;28;20046;-79
2023/06/09 06:21:13;;;;;;;5.88;3.40;;;;;;;17.17;100.00;101414.28;6193330;28;20367;-80
2023/06/09 06:24:15;;;;;;;8.05;4.10;;;;;;;17.20;100.00;101417.56;6186202;28;20424;-79
2023/06/09 06:27:16;;;;;;;6.05;3.17;;;;;;;17.27;100.00;101422.47;6193990;28;20046;-79
2023/06/09 06:30:19;;;;;;;5.75;2.88;;;;;;;17.34;100.00;101421.88;6201569;28;20359;-79
2023/06/09 06:33:21;;;;;;;5.82;2.88;;;;;;;17.33;100.00;101414.88;6193714;28;20454;-79
2023/06/09 06:36:22;;;;;;;6.28;3.13;;;;;;;17.37;100.00;101420.84;6195524;28;20359;-79
2023/06/09 06:39:24;;;;;;;6.53;3.40;;;;;;;17.40;100.00;101429.44;6198673;28;20113;-80
2023/06/09 06:42:25;;;;;;;5.03;2.72;;;;;;;17.45;100.00;101421.16;6184546;28;20051;-80
2023/06/09 06:45:28;;;;;;;8.32;3.03;;;;;;;17.47;100.00;101427.19;6193555;28;20053;-80
2023/06/09 06:48:29;;;;;;;5.25;3.38;;;;;;;17.48;100.00;101432.38;6191535;28;20210;-80
2023/06/09 06:51:31;;;;;;;11.20;4.65;;;;;;;17.50;100.00;101429.63;6193488;28;20133;-80
2023/06/09 06:54:32;;;;;;;6.03;3.05;;;;;;;17.52;98.37;101437.50;6177692;28;20050;-80
2023/06/09 06:57:34;;;;;;;5.53;2.95;;;;;;;17.55;93.38;101438.13;6186807;28;20053;-80
2023/06/09 07:00:37;;;;;;;6.82;3.40;;;;;;;17.59;93.49;101434.28;6181882;28;20060;-80
2023/06/09 07:03:40;;;;;;;6.05;2.95;;;;;;;17.65;94.71;101444.47;6186415;28;20108;-80
2023/06/09 07:06:41;;;;;;;5.47;3.20;;;;;;;17.66;93.51;101432.88;6196358;28;20045;-80
2023/06/09 07:09:43;;;;;;;6.28;3.33;;;;;;;17.73;96.19;101435.94;6190058;28;20521;-80
2023/06/09 07:12:44;;;;;;;7.57;3.28;;;;;;;17.77;96.75;101433.97;6201377;28;20050;-80
2023/06/09 07:15:47;;;;;;;5.60;3.30;;;;;;;17.80;93.28;101431.91;6191103;28;20053;-80
2023/06/09 07:18:48;;;;;;;7.63;2.88;;;;;;;17.83;92.18;101431.69;6202731;28;20050;-80
2023/06/09 07:21:50;;;;;;;5.38;3.03;;;;;;;17.88;94.53;101436.66;6199855;28;20054;-80
2023/06/09 07:24:51;;;;;;;12.50;3.08;;;;;;;17.90;89.04;101435.63;6200403;28;20046;-80
2023/06/09 07:27:52;;;;;;;6.65;3.35;;;;;;;17.98;91.49;101432.38;6187545;28;20053;-79
2023/06/09 07:30:56;;;;;;;5.63;3.42;;;;;;;17.98;93.79;101443.00;6195237;28;20046;-80
2023/06/09 07:33:58;;;;;;;4.63;2.65;;;;;;;17.96;93.64;101445.78;6187466;28;20057;-80
2023/06/09 07:37:05;;;;;;;5.30;2.70;;;;;;;18.01;91.33;101440.13;6203714;28;20065;-79
2023/06/09 07:40:08;;;;;;;5.28;2.95;;;;;;;18.03;90.65;101443.50;6197031;28;20050;-79
2023/06/09 07:43:09;;;;;;;4.90;2.92;;;;;;;18.11;91.02;101445.63;6190778;28;20432;-81
2023/06/09 07:46:14;;;;;;;5.30;3.05;;;;;;;18.19;87.89;101437.94;6190329;28;20053;-79
2023/06/09 07:49:15;;;;;;;6.85;3.10;;;;;;;18.26;88.96;101444.50;6189463;28;20457;-80
2023/06/09 07:52:16;;;;;;;5.78;2.90;;;;;;;18.33;84.74;101443.06;6189320;28;20062;-80
2023/06/09 07:55:18;;;;;;;4.10;2.45;;;;;;;18.44;86.51;101443.13;6196849;28;20058;-79
2023/06/09 07:58:19;;;;;;;5.38;2.67;;;;;;;18.47;88.66;101447.34;6196010;28;20051;-79
2023/06/09 08:01:22;;;;;;;5.55;2.60;;;;;;;18.49;89.61;101454.28;6199896;28;20057;-80
2023/06/09 08:04:23;;;;;;;7.93;3.08;;;;;;;18.56;88.70;101446.66;6197400;28;20053;-78
2023/06/09 08:07:26;;;;;;;4.60;3.80;;;;;;;18.57;89.34;101448.34;6200035;28;20046;-78
2023/06/09 08:10:27;;;;;;;5.50;2.53;;;;;;;18.62;89.39;101446.22;6202873;28;20141;-78
2023/06/09 08:13:29;;;;;;;6.18;2.95;;;;;;;18.67;91.54;101438.72;6196257;28;20057;-78
2023/06/09 08:16:32;;;;;;;4.28;2.58;;;;;;;18.74;91.07;101447.09;6191344;28;20054;-77
2023/06/09 08:19:33;;;;;;;5.82;2.92;;;;;;;18.81;83.22;101440.34;6197057;28;20341;-78
2023/06/09 08:22:34;;;;;;;5.85;2.85;;;;;;;18.85;85.16;101441.81;6194313;28;20351;-77
2023/06/09 08:25:36;;;;;;;7.43;3.00;;;;;;;18.94;88.90;101441.09;6195114;28;20093;-77
2023/06/09 08:28:38;;;;;;;6.88;2.50;;;;;;;19.03;90.19;101442.22;6196606;28;20057;-78
2023/06/09 08:31:41;;;;;;;4.47;2.92;;;;;;;19.06;86.38;101441.09;6200785;28;20070;-79
2023/06/09 08:34:42;;;;;;;6.78;2.42;;;;;;;19.10;88.75;101438.06;6192001;28;20055;-77
2023/06/09 08:37:44;;;;;;;8.18;2.88;;;;;;;19.13;90.33;101447.66;6190570;28;20324;-80
2023/06/09 08:40:46;;;;;;;5.40;3.00;;;;;;;19.17;92.35;101447.31;6189061;28;20055;-79
2023/06/09 08:43:48;;;;;;;5.85;3.50;;;;;;;19.17;92.70;101444.63;6189068;28;20059;-77
2023/06/09 08:46:53;;;;;;;4.53;2.90;;;;;;;19.20;93.79;101439.03;6199205;28;20050;-79
2023/06/09 08:49:57;;;;;;;5.85;3.22;;;;;;;19.29;91.58;101439.28;6195740;28;20137;-78
2023/06/09 08:53:00;;;;;;;8.38;3.40;;;;;;;19.32;91.19;101429.25;6195538;28;20082;-78
2023/06/09 08:56:02;;;;;;;8.77;2.90;;;;;;;19.41;93.54;101433.84;6203649;28;20051;-79
2023/06/09 08:59:04;;;;;;;5.03;2.42;;;;;;;19.44;92.74;101432.72;6191791;28;20455;-75
2023/06/09 09:02:10;;;;;;;4.03;2.67;;;;;;;19.51;93.77;101440.13;6193130;28;20066;-76
2023/06/09 09:05:11;;;;;;;6.93;3.60;;;;;;;19.67;90.20;101441.63;6193636;28;20070;-76
2023/06/09 09:08:14;;;;;;;6.78;2.80;;;;;;;19.72;91.02;101436.75;6193437;28;20479;-75
2023/06/09 09:11:15;;;;;;;7.18;3.13;;;;;;;19.75;93.39;101448.00;6193092;28;20347;-74
2023/06/09 09:14:16;;;;;;;7.80;2.53;;;;;;;19.86;90.19;101440.97;6193211;28;20432;-75
2023/06/09 09:17:20;;;;;;;4.80;2.70;;;;;;;19.88;91.01;101442.53;6186257;28;20050;-75
2023/06/09 09:20:32;;;;;;;4.53;3.10;;;;;;;19.98;89.23;101440.81;6192813;28;20046;-76
2023/06/09 09:23:34;;;;;;;5.60;2.85;;;;;;;20.09;88.23;101447.09;6186260;28;20095;-75
2023/06/09 09:26:35;;;;;;;12.05;3.08;;;;;;;20.22;89.12;101447.78;6190255;28;20042;-78
2023/06/09 09:29:41;;;;;;;18.52;4.88;;;;;;;20.42;85.55;101444.28;6190671;28;20144;-76
2023/06/09 09:32:44;;;;;;;4.38;2.70;;;;;;;20.64;81.22;101432.66;6186943;28;20113;-77
2023/06/09 09:35:48;;;;;;;7.75;3.00;;;;;;;20.83;85.09;101439.97;6199584;28;20047;-77
2023/06/09 09:38:50;;;;;;;7.22;3.33;;;;;;;20.96;81.68;101434.41;6186095;28;20057;-79
2023/06/09 09:42:06;;;;;;;4.07;2.88;;;;;;;20.88;84.60;101426.19;6192754;28;20047;-79
2023/06/09 09:45:09;;;;;;;5.88;3.25;;;;;;;20.82;85.63;101432.94;6188606;28;20476;-79
2023/06/09 09:48:13;;;;;;;9.60;2.70;;;;;;;20.78;87.61;101426.16;6197586;28;20057;-78
2023/06/09 09:51:15;;;;;;;5.55;3.17;;;;;;;20.78;88.29;101424.31;6191424;28;20055;-77
2023/06/09 09:54:18;;;;;;;5.40;2.97;;;;;;;20.82;86.64;101419.56;6185557;28;20451;-79
2023/06/09 09:57:20;;;;;;;7.25;3.22;;;;;;;20.76;87.40;101420.94;6184538;28;20144;-79
2023/06/09 10:00:23;;;;;;;4.50;2.80;;;;;;;20.80;88.34;101420.66;6190486;28;20049;-77
2023/06/09 10:03:26;;;;;;;3.25;2.58;;;;;;;20.90;88.39;101419.75;6195923;28;20361;-78
2023/06/09 10:06:30;;;;;;;5.85;3.30;;;;;;;20.94;86.13;101417.69;6190116;28;20574;-79
2023/06/09 10:09:32;;;;;;;6.40;3.17;;;;;;;21.28;83.28;101424.44;6191553;28;20050;-78
2023/06/09 10:12:37;;;;;;;6.75;2.90;;;;;;;21.56;79.01;101418.50;6185806;28;20074;-79
2023/06/09 10:15:42;;;;;;;5.35;2.58;;;;;;;21.79;75.37;101430.66;6191660;28;20051;-78
2023/06/09 10:18:46;;;;;;;4.93;2.97;;;;;;;21.79;75.00;101410.09;6190685;28;20058;-79
2023/06/09 10:21:49;;;;;;;4.18;2.60;;;;;;;21.99;72.04;101418.16;6184466;28;20142;-78
2023/06/09 10:24:51;;;;;;;3.88;2.72;;;;;;;22.12;72.09;101413.44;6187462;28;20050;-78
2023/06/09 10:27:53;;;;;;;3.47;2.47;;;;;;;22.38;68.48;101415.50;6152950;28;1005276;-77
2023/06/09 10:30:56;;;;;;;6.18;2.53;;;;;;;22.23;71.25;101404.41;6201023;28;20065;-75
2023/06/09 10:33:59;;;;;;;3.75;2.45;;;;;;;22.39;70.10;101415.41;6201899;28;20054;-75
2023/06/09 10:37:00;;;;;;;3.97;2.78;;;;;;;22.51;69.75;101408.03;6199170;28;20052;-78
2023/06/09 10:40:12;;;;;;;4.00;2.58;;;;;;;22.49;71.92;101405.50;6183948;28;20054;-78
2023/06/09 10:43:30;;;;;;;4.38;2.78;;;;;;;22.59;69.81;101410.00;6199650;28;20050;-77
2023/06/09 10:46:40;;;;;;;8.02;2.97;;;;;;;22.60;69.95;101407.16;6185694;28;20054;-75
2023/06/09 10:49:45;;;;;;;5.50;2.97;;;;;;;22.58;69.33;101400.28;6195014;28;20081;-74
2023/06/09 10:52:52;;;;;;;7.68;2.80;;;;;;;22.58;70.40;101401.13;6193701;28;20055;-73
2023/06/09 10:56:40;;;;;;;3.55;2.60;;;;;;;22.69;70.19;101394.75;6190019;28;20180;-74
2023/06/09 11:00:11;;;;;;;5.63;2.90;;;;;;;23.03;68.87;101397.78;6195903;28;20050;-74
2023/06/09 11:03:29;;;;;;;5.07;3.10;;;;;;;23.44;70.49;101390.25;6191667;28;20110;-74
2023/06/09 11:07:07;;;;;;;5.28;2.85;;;;;;;23.38;69.72;101382.78;6186994;28;20057;-74
2023/06/09 11:10:26;;;;;;;4.20;2.60;;;;;;;23.34;73.51;101378.72;6198271;28;20077;-74
2023/06/09 11:13:39;;;;;;;4.05;2.67;;;;;;;23.47;72.26;101377.38;6188456;28;20050;-75
2023/06/09 11:17:14;;;;;;;4.68;2.90;;;;;;;23.92;70.04;101373.00;6199505;28;20047;-75
2023/06/09 11:20:17;;;;;;;3.45;2.63;;;;;;;24.05;68.41;101370.78;6194069;28;20050;-74
2023/06/09 11:23:20;;;;;;;6.80;3.65;;;;;;;24.20;68.59;101365.69;6193391;28;20054;-74
2023/06/09 11:26:22;;;;;;;8.05;2.97;;;;;;;24.10;66.39;101357.72;6184109;28;20058;-72
2023/06/09 11:29:24;;;;;;;3.72;2.78;;;;;;;24.21;65.85;101365.56;6194266;28;20073;-77
2023/06/09 11:32:44;;;;;;;3.58;2.60;;;;;;;24.85;64.89;101362.66;6199404;28;20154;-77
2023/06/09 11:35:46;;;;;;;4.20;2.60;;;;;;;24.74;63.08;101356.53;6196262;28;20371;-79
2023/06/09 11:38:50;;;;;;;7.65;3.10;;;;;;;24.78;63.52;101357.91;6193509;28;20054;-78
2023/06/09 11:41:56;;;;;;;8.32;3.92;;;;;;;24.81;64.31;101348.69;6188573;28;20051;-79
2023/06/09 11:45:01;;;;;;;3.65;2.90;;;;;;;24.94;64.50;101346.41;6197516;28;20057;-79
2023/06/09 11:48:04;;;;;;;4.18;2.72;;;;;;;25.21;63.87;101348.06;6198388;28;20049;-77
2023/06/09 11:51:05;;;;;;;4.53;2.85;;;;;;;25.61;58.48;101334.84;6195654;28;20370;-78
2023/06/09 11:54:09;;;;;;;3.35;2.60;;;;;;;26.08;55.43;101343.19;6203052;28;20061;-78
2023/06/09 11:57:11;;;;;;;5.57;3.65;;;;;;;26.37;57.50;101339.13;6199809;28;20054;-77
2023/06/09 12:00:14;;;;;;;4.10;2.58;;;;;;;26.66;54.79;101350.22;6195832;28;20054;-79
2023/06/09 12:03:18;;;;;;;3.90;2.60;;;;;;;26.80;50.19;101343.28;6188951;28;20077;-79
2023/06/09 12:06:20;;;;;;;5.22;3.17;;;;;;;26.68;52.29;101339.25;6188357;28;20054;-78
2023/06/09 12:09:24;;;;;;;5.65;3.28;;;;;;;26.70;51.75;101335.34;6180639;28;20050;-77
2023/06/09 12:12:25;;;;;;;7.03;2.55;;;;;;;26.90;52.57;101334.97;6183577;28;20046;-78
2023/06/09 12:15:28;;;;;;;5.47;2.80;;;;;;;27.10;54.31;101330.88;6194327;28;20047;-78
2023/06/09 12:18:30;;;;;;;4.13;2.88;;;;;;;27.10;51.46;101324.63;6205199;28;20461;-77
2023/06/09 12:21:33;;;;;;;7.63;3.03;;;;;;;27.33;50.23;101324.69;6204245;28;20358;-78
2023/06/09 12:24:36;;;;;;;5.20;3.20;;;;;;;27.27;49.94;101321.69;6204629;28;20375;-77
2023/06/09 12:27:37;;;;;;;5.50;3.15;;;;;;;27.38;51.11;101322.28;6193084;28;20045;-78
2023/06/09 12:30:42;;;;;;;4.63;3.30;;;;;;;27.42;48.96;101312.81;6180346;28;20047;-78
2023/06/09 12:33:47;;;;;;;4.50;3.15;;;;;;;27.51;46.44;101320.69;6200145;28;20177;-76
2023/06/09 12:36:49;;;;;;;3.65;2.78;;;;;;;27.38;47.52;101314.19;6203976;28;20043;-75
2023/06/09 12:40:04;;;;;;;5.60;3.00;;;;;;;27.20;47.23;101309.91;6203397;28;20510;-79
2023/06/09 12:43:06;;;;;;;3.25;2.58;;;;;;;27.17;48.29;101310.28;6197859;28;20352;-79
2023/06/09 12:46:07;;;;;;;4.53;2.70;;;;;;;27.29;48.31;101302.59;6187397;28;20058;-78
2023/06/09 12:49:10;;;;;;;6.78;3.50;;;;;;;27.81;50.89;101302.78;6204090;28;20050;-78
2023/06/09 12:52:12;;;;;;;4.78;2.95;;;;;;;28.09;47.76;101301.38;6186877;28;20050;-79
2023/06/09 12:55:17;;;;;;;3.80;2.83;;;;;;;28.18;46.53;101294.84;6187476;28;20045;-76
2023/06/09 12:58:18;;;;;;;3.92;2.58;;;;;;;28.13;43.50;101284.59;6196016;28;20117;-78
2023/06/09 13:01:21;;;;;;;4.22;2.85;;;;;;;28.58;43.50;101282.81;6197563;28;20359;-77
2023/06/09 13:04:23;;;;;;;4.40;2.40;;;;;;;28.77;44.10;101278.69;6197691;28;20053;-78
2023/06/09 13:07:24;;;;;;;9.80;2.88;;;;;;;28.62;43.56;101281.41;6196573;28;20046;-80
2023/06/09 13:10:27;;;;;;;3.50;2.80;;;;;;;28.27;43.45;101285.66;6187575;28;20050;-79
2023/06/09 13:13:30;;;;;;;4.05;2.60;;;;;;;28.04;44.50;101280.28;6201860;28;20054;-79
2023/06/09 13:16:31;;;;;;;4.95;3.13;;;;;;;27.92;43.46;101279.03;6186304;28;20047;-78
2023/06/09 13:19:33;;;;;;;5.65;2.65;;;;;;;28.12;47.87;101279.38;6201294;28;20149;-78
2023/06/09 13:22:34;;;;;;;5.25;2.83;;;;;;;28.33;45.03;101274.91;6200195;28;20046;-74
2023/06/09 13:25:41;;;;;;;12.70;3.25;;;;;;;28.05;45.07;101284.66;6190914;28;20070;-74
2023/06/09 13:28:42;;;;;;;4.97;2.70;;;;;;;27.72;43.87;101278.72;6191016;28;20050;-74
2023/06/09 13:31:44;;;;;;;4.07;2.50;;;;;;;27.29;46.02;101281.00;6192502;28;20046;-73
2023/06/09 13:34:46;;;;;;;4.20;2.95;;;;;;;27.17;44.63;101277.88;6191397;28;20054;-73
2023/06/09 13:37:47;;;;;;;4.38;2.53;;;;;;;27.00;45.92;101274.38;6190183;28;20057;-76
2023/06/09 13:40:50;;;;;;;3.60;2.50;;;;;;;26.84;46.81;101274.47;6192136;28;20055;-77
2023/06/09 13:43:51;;;;;;;3.70;2.78;;;;;;;26.72;46.82;101281.28;6188651;28;20052;-78
2023/06/09 13:46:53;;;;;;;4.38;2.53;;;;;;;26.59;49.44;101281.81;6195245;28;20046;-78
2023/06/09 13:49:55;;;;;;;3.58;2.67;;;;;;;26.49;49.59;101281.19;6189117;28;20051;-78
2023/06/09 13:52:56;;;;;;;4.00;2.20;;;;;;;26.45;49.05;101275.28;6191705;28;20051;-76
2023/06/09 13:55:59;;;;;;;3.22;2.30;;;;;;;26.47;50.17;101269.72;6191955;28;20042;-77
2023/06/09 13:59:00;;;;;;;4.90;2.90;;;;;;;26.72;48.64;101257.84;6202413;28;20054;-77
2023/06/09 14:02:02;;;;;;;4.85;2.30;;;;;;;27.14;46.22;101259.34;6192866;28;20057;-77
2023/06/09 14:05:03;;;;;;;7.05;2.83;;;;;;;27.47;47.07;101259.13;6197704;28;20050;-77
2023/06/09 14:08:05;;;;;;;3.97;2.42;;;;;;;27.68;45.16;101259.28;6193873;28;20046;-77